sensor_id;sensor_type;location;lat;lon;timestamp;P1;durP1;ratioP1;P2;durP2;ratioP2
4452;SDS011;2239;48.152;11.584;2023-07-16T00:00:07;5.13;;;2.80;;
4452;SDS011;2239;48.152;11.584;2023-07-16T00:02:34;5.80;;;2.73;;
4452;SDS011;2239;48.152;11.584;2023-07-16T00:05:01;5.53;;;2.60;;
4452;SDS011;2239;48.152;11.584;2023-07-16T00:07:26;6.93;;;3.20;;
4452;SDS011;2239;48.152;11.584;2023-07-16T00:09:52;8.20;;;2.97;;
4452;SDS011;2239;48.152;11.584;2023-07-16T00:12:18;3.17;;;2.53;;
4452;SDS011;2239;48.152;11.584;2023-07-16T00:14:43;7.83;;;3.20;;
4452;SDS011;2239;48.152;11.584;2023-07-16T00:17:09;5.93;;;3.27;;
4452;SDS011;2239;48.152;11.584;2023-07-16T00:19:34;4.90;;;2.80;;
4452;SDS011;2239;48.152;11.584;2023-07-16T00:22:00;6.03;;;2.80;;
4452;SDS011;2239;48.152;11.584;2023-07-16T00:24:26;4.80;;;2.90;;
4452;SDS011;2239;48.152;11.584;2023-07-16T00:26:52;5.50;;;2.97;;
4452;SDS011;2239;48.152;11.584;2023-07-16T00:29:18;5.53;;;2.60;;
4452;SDS011;2239;48.152;11.584;2023-07-16T00:31:43;4.90;;;3.00;;
4452;SDS011;2239;48.152;11.584;2023-07-16T00:34:09;6.87;;;3.00;;
4452;SDS011;2239;48.152;11.584;2023-07-16T00:36:35;5.00;;;2.87;;
4452;SDS011;2239;48.152;11.584;2023-07-16T00:39:00;3.80;;;2.57;;
4452;SDS011;2239;48.152;11.584;2023-07-16T00:41:26;5.93;;;3.17;;
4452;SDS011;2239;48.152;11.584;2023-07-16T00:43:52;6.07;;;2.70;;
4452;SDS011;2239;48.152;11.584;2023-07-16T00:46:19;3.80;;;2.93;;
4452;SDS011;2239;48.152;11.584;2023-07-16T00:48:45;5.23;;;3.03;;
4452;SDS011;2239;48.152;11.584;2023-07-16T00:51:10;5.00;;;3.23;;
4452;SDS011;2239;48.152;11.584;2023-07-16T00:53:38;5.63;;;2.87;;
4452;SDS011;2239;48.152;11.584;2023-07-16T00:56:04;5.20;;;3.00;;
4452;SDS011;2239;48.152;11.584;2023-07-16T00:58:30;4.70;;;2.73;;
4452;SDS011;2239;48.152;11.584;2023-07-16T01:00:56;4.70;;;2.80;;
4452;SDS011;2239;48.152;11.584;2023-07-16T01:03:21;6.83;;;3.13;;
4452;SDS011;2239;48.152;11.584;2023-07-16T01:05:55;4.73;;;2.97;;
4452;SDS011;2239;48.152;11.584;2023-07-16T01:08:31;5.30;;;2.57;;
4452;SDS011;2239;48.152;11.584;2023-07-16T01:11:01;5.57;;;3.60;;
4452;SDS011;2239;48.152;11.584;2023-07-16T01:13:28;5.40;;;3.47;;
4452;SDS011;2239;48.152;11.584;2023-07-16T01:15:54;5.03;;;2.70;;
4452;SDS011;2239;48.152;11.584;2023-07-16T01:18:20;4.30;;;3.23;;
4452;SDS011;2239;48.152;11.584;2023-07-16T01:20:45;4.43;;;2.63;;
4452;SDS011;2239;48.152;11.584;2023-07-16T01:28:52;5.57;;;3.30;;
4452;SDS011;2239;48.152;11.584;2023-07-16T01:31:29;3.97;;;2.80;;
4452;SDS011;2239;48.152;11.584;2023-07-16T01:33:55;5.70;;;3.03;;
4452;SDS011;2239;48.152;11.584;2023-07-16T01:36:21;6.30;;;3.37;;
4452;SDS011;2239;48.152;11.584;2023-07-16T01:38:49;11.83;;;3.47;;
4452;SDS011;2239;48.152;11.584;2023-07-16T01:41:14;5.00;;;3.20;;
4452;SDS011;2239;48.152;11.584;2023-07-16T01:43:40;5.57;;;2.73;;
4452;SDS011;2239;48.152;11.584;2023-07-16T01:46:05;6.47;;;3.10;;
4452;SDS011;2239;48.152;11.584;2023-07-16T01:48:35;5.23;;;3.00;;
4452;SDS011;2239;48.152;11.584;2023-07-16T01:51:02;5.23;;;3.00;;
4452;SDS011;2239;48.152;11.584;2023-07-16T01:53:29;6.00;;;3.40;;
4452;SDS011;2239;48.152;11.584;2023-07-16T01:55:56;6.03;;;3.07;;
4452;SDS011;2239;48.152;11.584;2023-07-16T01:58:22;5.53;;;2.77;;
4452;SDS011;2239;48.152;11.584;2023-07-16T02:00:48;5.30;;;3.00;;
4452;SDS011;2239;48.152;11.584;2023-07-16T02:03:14;6.00;;;3.30;;
4452;SDS011;2239;48.152;11.584;2023-07-16T02:05:40;5.60;;;3.00;;
4452;SDS011;2239;48.152;11.584;2023-07-16T02:08:06;4.90;;;2.83;;
4452;SDS011;2239;48.152;11.584;2023-07-16T02:10:31;5.43;;;3.33;;
4452;SDS011;2239;48.152;11.584;2023-07-16T02:12:57;7.30;;;3.40;;
4452;SDS011;2239;48.152;11.584;2023-07-16T02:15:22;7.87;;;3.57;;
4452;SDS011;2239;48.152;11.584;2023-07-16T02:17:48;6.23;;;3.30;;
4452;SDS011;2239;48.152;11.584;2023-07-16T02:20:13;6.60;;;3.03;;
4452;SDS011;2239;48.152;11.584;2023-07-16T02:22:39;5.87;;;3.60;;
4452;SDS011;2239;48.152;11.584;2023-07-16T02:25:05;5.70;;;3.10;;
4452;SDS011;2239;48.152;11.584;2023-07-16T02:27:31;5.90;;;2.93;;
4452;SDS011;2239;48.152;11.584;2023-07-16T02:29:57;5.20;;;2.63;;
4452;SDS011;2239;48.152;11.584;2023-07-16T02:32:22;5.93;;;3.20;;
4452;SDS011;2239;48.152;11.584;2023-07-16T02:34:48;6.43;;;3.13;;
4452;SDS011;2239;48.152;11.584;2023-07-16T02:37:13;6.23;;;3.40;;
4452;SDS011;2239;48.152;11.584;2023-07-16T02:39:41;5.63;;;3.40;;
4452;SDS011;2239;48.152;11.584;2023-07-16T02:42:07;6.33;;;3.43;;
4452;SDS011;2239;48.152;11.584;2023-07-16T02:44:33;4.37;;;2.80;;
4452;SDS011;2239;48.152;11.584;2023-07-16T02:46:59;7.03;;;3.13;;
4452;SDS011;2239;48.152;11.584;2023-07-16T02:49:25;6.67;;;3.23;;
4452;SDS011;2239;48.152;11.584;2023-07-16T02:51:50;5.17;;;2.97;;
4452;SDS011;2239;48.152;11.584;2023-07-16T02:54:16;6.87;;;3.20;;
4452;SDS011;2239;48.152;11.584;2023-07-16T02:56:41;6.83;;;3.40;;
4452;SDS011;2239;48.152;11.584;2023-07-16T02:59:07;6.43;;;3.27;;
4452;SDS011;2239;48.152;11.584;2023-07-16T03:01:32;5.13;;;3.40;;
4452;SDS011;2239;48.152;11.584;2023-07-16T03:03:58;4.60;;;3.20;;
4452;SDS011;2239;48.152;11.584;2023-07-16T03:06:24;7.53;;;2.83;;
4452;SDS011;2239;48.152;11.584;2023-07-16T03:08:49;5.43;;;3.50;;
4452;SDS011;2239;48.152;11.584;2023-07-16T03:11:15;4.33;;;2.27;;
4452;SDS011;2239;48.152;11.584;2023-07-16T03:13:40;4.50;;;2.77;;
4452;SDS011;2239;48.152;11.584;2023-07-16T03:16:06;3.90;;;2.70;;
4452;SDS011;2239;48.152;11.584;2023-07-16T03:18:32;3.33;;;2.30;;
4452;SDS011;2239;48.152;11.584;2023-07-16T03:20:57;3.30;;;2.10;;
4452;SDS011;2239;48.152;11.584;2023-07-16T03:23:23;4.53;;;2.80;;
4452;SDS011;2239;48.152;11.584;2023-07-16T03:25:49;3.53;;;2.10;;
4452;SDS011;2239;48.152;11.584;2023-07-16T03:28:16;3.53;;;2.27;;
4452;SDS011;2239;48.152;11.584;2023-07-16T03:30:45;2.53;;;2.00;;
4452;SDS011;2239;48.152;11.584;2023-07-16T03:33:14;4.00;;;2.13;;
4452;SDS011;2239;48.152;11.584;2023-07-16T03:35:44;4.30;;;2.23;;
4452;SDS011;2239;48.152;11.584;2023-07-16T03:38:10;3.93;;;2.27;;
4452;SDS011;2239;48.152;11.584;2023-07-16T03:40:36;3.47;;;2.00;;
4452;SDS011;2239;48.152;11.584;2023-07-16T03:43:02;4.57;;;2.00;;
4452;SDS011;2239;48.152;11.584;2023-07-16T03:45:28;2.83;;;1.80;;
4452;SDS011;2239;48.152;11.584;2023-07-16T03:47:53;4.07;;;2.00;;
4452;SDS011;2239;48.152;11.584;2023-07-16T03:50:19;3.50;;;2.13;;
4452;SDS011;2239;48.152;11.584;2023-07-16T03:52:44;3.13;;;2.07;;
4452;SDS011;2239;48.152;11.584;2023-07-16T03:55:10;5.40;;;3.00;;
4452;SDS011;2239;48.152;11.584;2023-07-16T03:57:36;4.67;;;2.40;;
4452;SDS011;2239;48.152;11.584;2023-07-16T04:00:02;4.50;;;2.50;;
4452;SDS011;2239;48.152;11.584;2023-07-16T04:02:31;3.43;;;2.20;;
4452;SDS011;2239;48.152;11.584;2023-07-16T04:04:56;3.10;;;2.10;;
4452;SDS011;2239;48.152;11.584;2023-07-16T04:07:22;5.80;;;2.33;;
4452;SDS011;2239;48.152;11.584;2023-07-16T04:09:47;4.27;;;2.30;;
4452;SDS011;2239;48.152;11.584;2023-07-16T04:12:13;4.60;;;2.50;;
4452;SDS011;2239;48.152;11.584;2023-07-16T04:14:38;3.20;;;1.83;;
4452;SDS011;2239;48.152;11.584;2023-07-16T04:17:04;3.63;;;2.07;;
4452;SDS011;2239;48.152;11.584;2023-07-16T04:19:30;2.63;;;1.83;;
4452;SDS011;2239;48.152;11.584;2023-07-16T04:21:56;3.47;;;1.60;;
4452;SDS011;2239;48.152;11.584;2023-07-16T04:24:22;3.03;;;1.90;;
4452;SDS011;2239;48.152;11.584;2023-07-16T04:26:48;3.70;;;2.23;;
4452;SDS011;2239;48.152;11.584;2023-07-16T04:29:14;3.00;;;2.33;;
4452;SDS011;2239;48.152;11.584;2023-07-16T04:31:40;3.13;;;1.87;;
4452;SDS011;2239;48.152;11.584;2023-07-16T04:34:06;3.53;;;2.23;;
4452;SDS011;2239;48.152;11.584;2023-07-16T04:36:31;3.23;;;1.90;;
4452;SDS011;2239;48.152;11.584;2023-07-16T04:38:57;5.03;;;2.50;;
4452;SDS011;2239;48.152;11.584;2023-07-16T04:41:23;2.70;;;2.10;;
4452;SDS011;2239;48.152;11.584;2023-07-16T04:43:48;3.10;;;2.10;;
4452;SDS011;2239;48.152;11.584;2023-07-16T04:46:14;3.27;;;1.90;;
4452;SDS011;2239;48.152;11.584;2023-07-16T04:48:41;5.30;;;1.50;;
4452;SDS011;2239;48.152;11.584;2023-07-16T04:51:06;3.10;;;1.93;;
4452;SDS011;2239;48.152;11.584;2023-07-16T04:53:32;2.93;;;2.00;;
4452;SDS011;2239;48.152;11.584;2023-07-16T04:55:58;2.60;;;2.07;;
4452;SDS011;2239;48.152;11.584;2023-07-16T04:58:23;3.53;;;2.00;;
4452;SDS011;2239;48.152;11.584;2023-07-16T05:00:49;2.87;;;1.67;;
4452;SDS011;2239;48.152;11.584;2023-07-16T05:03:14;2.73;;;1.60;;
4452;SDS011;2239;48.152;11.584;2023-07-16T05:05:40;1.83;;;1.40;;
4452;SDS011;2239;48.152;11.584;2023-07-16T05:08:05;2.00;;;1.37;;
4452;SDS011;2239;48.152;11.584;2023-07-16T05:10:31;2.47;;;1.60;;
4452;SDS011;2239;48.152;11.584;2023-07-16T05:12:57;3.03;;;1.50;;
4452;SDS011;2239;48.152;11.584;2023-07-16T05:15:23;3.00;;;1.80;;
4452;SDS011;2239;48.152;11.584;2023-07-16T05:17:48;3.87;;;1.80;;
4452;SDS011;2239;48.152;11.584;2023-07-16T05:20:14;3.33;;;1.30;;
4452;SDS011;2239;48.152;11.584;2023-07-16T05:22:39;2.33;;;1.57;;
4452;SDS011;2239;48.152;11.584;2023-07-16T05:25:05;2.93;;;1.50;;
4452;SDS011;2239;48.152;11.584;2023-07-16T05:27:31;1.60;;;1.20;;
4452;SDS011;2239;48.152;11.584;2023-07-16T05:29:57;3.10;;;2.13;;
4452;SDS011;2239;48.152;11.584;2023-07-16T05:32:22;2.23;;;1.13;;
4452;SDS011;2239;48.152;11.584;2023-07-16T05:34:48;2.77;;;1.70;;
4452;SDS011;2239;48.152;11.584;2023-07-16T05:37:13;3.00;;;1.33;;
4452;SDS011;2239;48.152;11.584;2023-07-16T05:39:39;2.43;;;1.27;;
4452;SDS011;2239;48.152;11.584;2023-07-16T05:42:05;3.03;;;1.40;;
4452;SDS011;2239;48.152;11.584;2023-07-16T05:44:30;1.53;;;1.10;;
4452;SDS011;2239;48.152;11.584;2023-07-16T05:46:56;2.20;;;1.50;;
4452;SDS011;2239;48.152;11.584;2023-07-16T05:49:22;2.00;;;1.60;;
4452;SDS011;2239;48.152;11.584;2023-07-16T05:51:48;2.53;;;1.47;;
4452;SDS011;2239;48.152;11.584;2023-07-16T05:54:14;1.53;;;1.30;;
4452;SDS011;2239;48.152;11.584;2023-07-16T05:56:39;2.90;;;1.70;;
4452;SDS011;2239;48.152;11.584;2023-07-16T05:59:05;2.77;;;1.23;;
4452;SDS011;2239;48.152;11.584;2023-07-16T06:01:31;3.80;;;1.60;;
4452;SDS011;2239;48.152;11.584;2023-07-16T06:03:56;2.83;;;1.70;;
4452;SDS011;2239;48.152;11.584;2023-07-16T06:06:22;2.37;;;1.37;;
4452;SDS011;2239;48.152;11.584;2023-07-16T06:08:47;2.57;;;1.30;;
4452;SDS011;2239;48.152;11.584;2023-07-16T06:11:13;2.30;;;1.10;;
4452;SDS011;2239;48.152;11.584;2023-07-16T06:13:39;2.27;;;1.60;;
4452;SDS011;2239;48.152;11.584;2023-07-16T06:16:05;3.17;;;1.43;;
4452;SDS011;2239;48.152;11.584;2023-07-16T06:18:30;1.90;;;1.30;;
4452;SDS011;2239;48.152;11.584;2023-07-16T06:20:56;3.33;;;1.50;;
4452;SDS011;2239;48.152;11.584;2023-07-16T06:23:22;2.43;;;1.53;;
4452;SDS011;2239;48.152;11.584;2023-07-16T06:25:47;3.00;;;1.90;;
4452;SDS011;2239;48.152;11.584;2023-07-16T06:28:14;1.87;;;1.60;;
4452;SDS011;2239;48.152;11.584;2023-07-16T06:30:40;1.70;;;1.50;;
4452;SDS011;2239;48.152;11.584;2023-07-16T06:33:06;2.80;;;1.93;;
4452;SDS011;2239;48.152;11.584;2023-07-16T06:35:31;3.33;;;1.90;;
4452;SDS011;2239;48.152;11.584;2023-07-16T06:37:57;3.70;;;2.27;;
4452;SDS011;2239;48.152;11.584;2023-07-16T06:40:23;3.20;;;1.70;;
4452;SDS011;2239;48.152;11.584;2023-07-16T06:42:49;3.90;;;1.63;;
4452;SDS011;2239;48.152;11.584;2023-07-16T06:45:17;3.30;;;1.93;;
4452;SDS011;2239;48.152;11.584;2023-07-16T06:47:43;3.03;;;1.80;;
4452;SDS011;2239;48.152;11.584;2023-07-16T06:50:08;1.60;;;1.40;;
4452;SDS011;2239;48.152;11.584;2023-07-16T06:52:34;2.27;;;1.57;;
4452;SDS011;2239;48.152;11.584;2023-07-16T06:55:00;3.20;;;1.60;;
4452;SDS011;2239;48.152;11.584;2023-07-16T06:57:25;3.70;;;2.13;;
4452;SDS011;2239;48.152;11.584;2023-07-16T06:59:51;2.73;;;1.63;;
4452;SDS011;2239;48.152;11.584;2023-07-16T07:02:17;2.33;;;1.43;;
4452;SDS011;2239;48.152;11.584;2023-07-16T07:04:43;2.33;;;1.40;;
4452;SDS011;2239;48.152;11.584;2023-07-16T07:07:08;2.43;;;1.60;;
4452;SDS011;2239;48.152;11.584;2023-07-16T07:09:34;2.30;;;1.43;;
4452;SDS011;2239;48.152;11.584;2023-07-16T07:12:00;2.40;;;1.57;;
4452;SDS011;2239;48.152;11.584;2023-07-16T07:14:25;1.93;;;1.57;;
4452;SDS011;2239;48.152;11.584;2023-07-16T07:16:51;2.00;;;1.57;;
4452;SDS011;2239;48.152;11.584;2023-07-16T07:19:17;2.70;;;1.30;;
4452;SDS011;2239;48.152;11.584;2023-07-16T07:21:42;2.17;;;1.37;;
4452;SDS011;2239;48.152;11.584;2023-07-16T07:24:08;1.57;;;1.13;;
4452;SDS011;2239;48.152;11.584;2023-07-16T07:26:33;2.63;;;1.37;;
4452;SDS011;2239;48.152;11.584;2023-07-16T07:28:59;1.57;;;1.30;;
4452;SDS011;2239;48.152;11.584;2023-07-16T07:31:25;3.50;;;1.60;;
4452;SDS011;2239;48.152;11.584;2023-07-16T07:33:50;1.13;;;0.90;;
4452;SDS011;2239;48.152;11.584;2023-07-16T07:36:16;1.30;;;1.00;;
4452;SDS011;2239;48.152;11.584;2023-07-16T07:38:41;1.03;;;0.93;;
4452;SDS011;2239;48.152;11.584;2023-07-16T07:41:07;1.70;;;1.17;;
4452;SDS011;2239;48.152;11.584;2023-07-16T07:43:32;1.33;;;1.13;;
4452;SDS011;2239;48.152;11.584;2023-07-16T07:45:58;1.77;;;1.40;;
4452;SDS011;2239;48.152;11.584;2023-07-16T07:48:23;1.53;;;1.00;;
4452;SDS011;2239;48.152;11.584;2023-07-16T07:50:49;2.33;;;1.23;;
4452;SDS011;2239;48.152;11.584;2023-07-16T07:53:15;1.10;;;1.00;;
4452;SDS011;2239;48.152;11.584;2023-07-16T07:55:42;1.87;;;1.20;;
4452;SDS011;2239;48.152;11.584;2023-07-16T07:58:08;2.40;;;1.20;;
4452;SDS011;2239;48.152;11.584;2023-07-16T08:00:34;2.57;;;1.50;;
4452;SDS011;2239;48.152;11.584;2023-07-16T08:03:00;2.40;;;1.10;;
4452;SDS011;2239;48.152;11.584;2023-07-16T08:05:25;3.07;;;1.27;;
4452;SDS011;2239;48.152;11.584;2023-07-16T08:07:51;1.00;;;0.90;;
4452;SDS011;2239;48.152;11.584;2023-07-16T08:10:17;1.20;;;1.10;;
4452;SDS011;2239;48.152;11.584;2023-07-16T08:12:43;2.43;;;1.30;;
4452;SDS011;2239;48.152;11.584;2023-07-16T08:15:09;1.77;;;1.00;;
4452;SDS011;2239;48.152;11.584;2023-07-16T08:17:39;1.90;;;1.10;;
4452;SDS011;2239;48.152;11.584;2023-07-16T08:20:05;1.80;;;1.10;;
4452;SDS011;2239;48.152;11.584;2023-07-16T08:22:32;1.93;;;1.23;;
4452;SDS011;2239;48.152;11.584;2023-07-16T08:24:57;1.53;;;1.37;;
4452;SDS011;2239;48.152;11.584;2023-07-16T08:27:23;2.10;;;1.13;;
4452;SDS011;2239;48.152;11.584;2023-07-16T08:29:49;1.00;;;0.90;;
4452;SDS011;2239;48.152;11.584;2023-07-16T08:32:14;1.33;;;1.00;;
4452;SDS011;2239;48.152;11.584;2023-07-16T08:34:40;1.43;;;1.30;;
4452;SDS011;2239;48.152;11.584;2023-07-16T08:37:05;1.00;;;0.90;;
4452;SDS011;2239;48.152;11.584;2023-07-16T08:39:31;2.30;;;1.23;;
4452;SDS011;2239;48.152;11.584;2023-07-16T08:41:57;1.00;;;0.90;;
4452;SDS011;2239;48.152;11.584;2023-07-16T08:44:23;2.20;;;1.10;;
4452;SDS011;2239;48.152;11.584;2023-07-16T08:46:49;1.20;;;1.10;;
4452;SDS011;2239;48.152;11.584;2023-07-16T08:49:17;1.20;;;1.00;;
4452;SDS011;2239;48.152;11.584;2023-07-16T08:51:45;1.63;;;1.10;;
4452;SDS011;2239;48.152;11.584;2023-07-16T08:54:12;2.83;;;1.23;;
4452;SDS011;2239;48.152;11.584;2023-07-16T08:56:42;2.13;;;1.60;;
4452;SDS011;2239;48.152;11.584;2023-07-16T08:59:10;1.13;;;0.93;;
4452;SDS011;2239;48.152;11.584;2023-07-16T09:01:36;1.47;;;1.10;;
4452;SDS011;2239;48.152;11.584;2023-07-16T09:04:02;2.20;;;1.23;;
4452;SDS011;2239;48.152;11.584;2023-07-16T09:06:28;1.33;;;1.20;;
4452;SDS011;2239;48.152;11.584;2023-07-16T09:08:54;2.30;;;1.33;;
4452;SDS011;2239;48.152;11.584;2023-07-16T09:11:20;1.30;;;1.17;;
4452;SDS011;2239;48.152;11.584;2023-07-16T09:13:47;2.40;;;1.17;;
4452;SDS011;2239;48.152;11.584;2023-07-16T09:16:13;1.53;;;0.97;;
4452;SDS011;2239;48.152;11.584;2023-07-16T09:18:41;1.47;;;0.97;;
4452;SDS011;2239;48.152;11.584;2023-07-16T09:21:07;1.30;;;0.93;;
4452;SDS011;2239;48.152;11.584;2023-07-16T09:23:32;2.47;;;1.10;;
4452;SDS011;2239;48.152;11.584;2023-07-16T09:25:58;1.20;;;1.10;;
4452;SDS011;2239;48.152;11.584;2023-07-16T09:28:24;1.10;;;1.00;;
4452;SDS011;2239;48.152;11.584;2023-07-16T09:30:50;1.63;;;1.00;;
4452;SDS011;2239;48.152;11.584;2023-07-16T09:33:18;1.70;;;0.90;;
4452;SDS011;2239;48.152;11.584;2023-07-16T09:35:51;1.60;;;1.20;;
4452;SDS011;2239;48.152;11.584;2023-07-16T09:38:17;1.10;;;1.00;;
4452;SDS011;2239;48.152;11.584;2023-07-16T09:40:43;1.10;;;1.00;;
4452;SDS011;2239;48.152;11.584;2023-07-16T09:43:09;2.40;;;1.23;;
4452;SDS011;2239;48.152;11.584;2023-07-16T09:45:36;1.17;;;1.07;;
4452;SDS011;2239;48.152;11.584;2023-07-16T09:48:02;1.77;;;1.20;;
4452;SDS011;2239;48.152;11.584;2023-07-16T09:50:29;1.10;;;1.00;;
4452;SDS011;2239;48.152;11.584;2023-07-16T09:52:59;1.13;;;0.90;;
4452;SDS011;2239;48.152;11.584;2023-07-16T09:55:25;1.40;;;0.97;;
4452;SDS011;2239;48.152;11.584;2023-07-16T09:57:52;2.50;;;1.57;;
4452;SDS011;2239;48.152;11.584;2023-07-16T10:00:21;1.53;;;1.10;;
4452;SDS011;2239;48.152;11.584;2023-07-16T10:02:47;1.43;;;1.00;;
4452;SDS011;2239;48.152;11.584;2023-07-16T10:05:14;2.50;;;1.17;;
4452;SDS011;2239;48.152;11.584;2023-07-16T10:07:54;1.50;;;1.20;;
4452;SDS011;2239;48.152;11.584;2023-07-16T10:10:26;2.13;;;1.30;;
4452;SDS011;2239;48.152;11.584;2023-07-16T10:13:03;1.47;;;1.37;;
4452;SDS011;2239;48.152;11.584;2023-07-16T10:15:29;2.03;;;1.20;;
4452;SDS011;2239;48.152;11.584;2023-07-16T10:17:55;2.60;;;1.20;;
4452;SDS011;2239;48.152;11.584;2023-07-16T10:20:28;1.33;;;1.10;;
4452;SDS011;2239;48.152;11.584;2023-07-16T10:22:58;1.13;;;0.90;;
4452;SDS011;2239;48.152;11.584;2023-07-16T10:26:01;1.33;;;1.13;;
4452;SDS011;2239;48.152;11.584;2023-07-16T10:28:31;2.27;;;1.30;;
4452;SDS011;2239;48.152;11.584;2023-07-16T10:30:57;1.23;;;1.13;;
4452;SDS011;2239;48.152;11.584;2023-07-16T10:33:23;2.10;;;1.43;;
4452;SDS011;2239;48.152;11.584;2023-07-16T10:35:49;1.50;;;1.33;;
4452;SDS011;2239;48.152;11.584;2023-07-16T10:38:14;1.77;;;1.20;;
4452;SDS011;2239;48.152;11.584;2023-07-16T10:40:40;1.20;;;1.10;;
4452;SDS011;2239;48.152;11.584;2023-07-16T10:43:07;1.20;;;1.10;;
4452;SDS011;2239;48.152;11.584;2023-07-16T10:45:33;1.80;;;1.23;;
4452;SDS011;2239;48.152;11.584;2023-07-16T10:47:59;1.40;;;1.30;;
4452;SDS011;2239;48.152;11.584;2023-07-16T10:50:24;1.27;;;1.00;;
4452;SDS011;2239;48.152;11.584;2023-07-16T10:52:51;2.30;;;1.57;;
4452;SDS011;2239;48.152;11.584;2023-07-16T10:55:17;1.37;;;1.20;;
4452;SDS011;2239;48.152;11.584;2023-07-16T10:57:43;1.87;;;1.40;;
4452;SDS011;2239;48.152;11.584;2023-07-16T11:00:09;2.10;;;1.10;;
4452;SDS011;2239;48.152;11.584;2023-07-16T11:02:38;1.77;;;1.20;;
4452;SDS011;2239;48.152;11.584;2023-07-16T11:05:12;1.83;;;1.30;;
4452;SDS011;2239;48.152;11.584;2023-07-16T11:07:49;1.93;;;1.40;;
4452;SDS011;2239;48.152;11.584;2023-07-16T11:10:15;1.63;;;1.40;;
4452;SDS011;2239;48.152;11.584;2023-07-16T11:12:54;1.83;;;1.30;;
4452;SDS011;2239;48.152;11.584;2023-07-16T11:15:32;1.10;;;1.00;;
4452;SDS011;2239;48.152;11.584;2023-07-16T11:17:59;1.50;;;1.10;;
4452;SDS011;2239;48.152;11.584;2023-07-16T11:20:25;1.30;;;1.20;;
4452;SDS011;2239;48.152;11.584;2023-07-16T11:22:51;3.43;;;1.47;;
4452;SDS011;2239;48.152;11.584;2023-07-16T11:25:17;1.50;;;1.23;;
4452;SDS011;2239;48.152;11.584;2023-07-16T11:27:43;1.90;;;1.40;;
4452;SDS011;2239;48.152;11.584;2023-07-16T11:30:09;1.80;;;1.20;;
4452;SDS011;2239;48.152;11.584;2023-07-16T11:32:41;2.57;;;1.37;;
4452;SDS011;2239;48.152;11.584;2023-07-16T11:35:08;1.70;;;1.40;;
4452;SDS011;2239;48.152;11.584;2023-07-16T11:37:36;1.70;;;1.40;;
4452;SDS011;2239;48.152;11.584;2023-07-16T11:40:05;1.70;;;1.30;;
4452;SDS011;2239;48.152;11.584;2023-07-16T11:42:35;2.63;;;1.30;;
4452;SDS011;2239;48.152;11.584;2023-07-16T11:45:02;2.73;;;1.37;;
4452;SDS011;2239;48.152;11.584;2023-07-16T11:47:29;1.77;;;1.50;;
4452;SDS011;2239;48.152;11.584;2023-07-16T11:49:55;2.20;;;1.40;;
4452;SDS011;2239;48.152;11.584;2023-07-16T11:52:23;2.73;;;1.50;;
4452;SDS011;2239;48.152;11.584;2023-07-16T11:54:51;1.57;;;1.47;;
4452;SDS011;2239;48.152;11.584;2023-07-16T11:57:17;2.33;;;1.57;;
4452;SDS011;2239;48.152;11.584;2023-07-16T11:59:43;1.90;;;1.70;;
4452;SDS011;2239;48.152;11.584;2023-07-16T12:02:08;2.90;;;1.53;;
4452;SDS011;2239;48.152;11.584;2023-07-16T12:04:34;2.33;;;1.77;;
4452;SDS011;2239;48.152;11.584;2023-07-16T12:07:00;2.07;;;1.60;;
4452;SDS011;2239;48.152;11.584;2023-07-16T12:09:25;2.07;;;1.87;;
4452;SDS011;2239;48.152;11.584;2023-07-16T12:11:51;1.40;;;1.30;;
4452;SDS011;2239;48.152;11.584;2023-07-16T12:14:16;1.60;;;1.40;;
4452;SDS011;2239;48.152;11.584;2023-07-16T12:16:42;1.67;;;1.47;;
4452;SDS011;2239;48.152;11.584;2023-07-16T12:19:08;3.03;;;1.77;;
4452;SDS011;2239;48.152;11.584;2023-07-16T12:21:34;1.60;;;1.30;;
4452;SDS011;2239;48.152;11.584;2023-07-16T12:23:59;1.80;;;1.30;;
4452;SDS011;2239;48.152;11.584;2023-07-16T12:26:25;2.00;;;1.63;;
4452;SDS011;2239;48.152;11.584;2023-07-16T12:28:51;1.40;;;1.30;;
4452;SDS011;2239;48.152;11.584;2023-07-16T12:31:16;2.00;;;1.50;;
4452;SDS011;2239;48.152;11.584;2023-07-16T12:33:43;2.67;;;1.73;;
4452;SDS011;2239;48.152;11.584;2023-07-16T12:36:08;1.90;;;1.70;;
4452;SDS011;2239;48.152;11.584;2023-07-16T12:38:34;1.80;;;1.63;;
4452;SDS011;2239;48.152;11.584;2023-07-16T12:41:00;2.07;;;1.77;;
4452;SDS011;2239;48.152;11.584;2023-07-16T12:43:25;2.93;;;1.40;;
4452;SDS011;2239;48.152;11.584;2023-07-16T12:45:51;1.60;;;1.40;;
4452;SDS011;2239;48.152;11.584;2023-07-16T12:48:16;3.33;;;1.90;;
4452;SDS011;2239;48.152;11.584;2023-07-16T12:50:42;2.70;;;1.70;;
4452;SDS011;2239;48.152;11.584;2023-07-16T12:53:07;1.87;;;1.50;;
4452;SDS011;2239;48.152;11.584;2023-07-16T12:55:33;3.50;;;1.80;;
4452;SDS011;2239;48.152;11.584;2023-07-16T12:57:59;3.13;;;1.60;;
4452;SDS011;2239;48.152;11.584;2023-07-16T13:00:25;3.07;;;1.63;;
4452;SDS011;2239;48.152;11.584;2023-07-16T13:02:50;2.63;;;1.80;;
4452;SDS011;2239;48.152;11.584;2023-07-16T13:05:16;3.70;;;2.10;;
4452;SDS011;2239;48.152;11.584;2023-07-16T13:07:41;2.40;;;1.73;;
4452;SDS011;2239;48.152;11.584;2023-07-16T13:10:07;2.27;;;1.67;;
4452;SDS011;2239;48.152;11.584;2023-07-16T13:12:34;2.73;;;1.80;;
4452;SDS011;2239;48.152;11.584;2023-07-16T13:14:59;1.80;;;1.63;;
4452;SDS011;2239;48.152;11.584;2023-07-16T13:17:25;2.70;;;1.70;;
4452;SDS011;2239;48.152;11.584;2023-07-16T13:19:50;1.63;;;1.50;;
4452;SDS011;2239;48.152;11.584;2023-07-16T13:22:16;2.43;;;1.60;;
4452;SDS011;2239;48.152;11.584;2023-07-16T13:24:41;1.73;;;1.63;;
4452;SDS011;2239;48.152;11.584;2023-07-16T13:27:09;1.63;;;1.53;;
4452;SDS011;2239;48.152;11.584;2023-07-16T13:29:44;2.50;;;1.73;;
4452;SDS011;2239;48.152;11.584;2023-07-16T13:32:09;1.80;;;1.40;;
4452;SDS011;2239;48.152;11.584;2023-07-16T13:34:35;2.30;;;1.93;;
4452;SDS011;2239;48.152;11.584;2023-07-16T13:37:00;2.13;;;1.87;;
4452;SDS011;2239;48.152;11.584;2023-07-16T13:39:26;2.40;;;1.63;;
4452;SDS011;2239;48.152;11.584;2023-07-16T13:41:51;2.37;;;1.60;;
4452;SDS011;2239;48.152;11.584;2023-07-16T13:44:17;2.53;;;1.77;;
4452;SDS011;2239;48.152;11.584;2023-07-16T13:46:43;2.70;;;1.83;;
4452;SDS011;2239;48.152;11.584;2023-07-16T13:49:08;3.37;;;2.00;;
4452;SDS011;2239;48.152;11.584;2023-07-16T13:51:34;2.63;;;1.80;;
4452;SDS011;2239;48.152;11.584;2023-07-16T13:54:00;2.43;;;1.70;;
4452;SDS011;2239;48.152;11.584;2023-07-16T13:56:25;2.20;;;1.80;;
4452;SDS011;2239;48.152;11.584;2023-07-16T13:58:51;3.00;;;1.70;;
4452;SDS011;2239;48.152;11.584;2023-07-16T14:01:18;1.93;;;1.60;;
4452;SDS011;2239;48.152;11.584;2023-07-16T14:03:44;1.93;;;1.70;;
4452;SDS011;2239;48.152;11.584;2023-07-16T14:06:10;2.07;;;1.83;;
4452;SDS011;2239;48.152;11.584;2023-07-16T14:08:36;2.00;;;1.80;;
4452;SDS011;2239;48.152;11.584;2023-07-16T14:11:01;2.03;;;1.60;;
4452;SDS011;2239;48.152;11.584;2023-07-16T14:13:27;2.30;;;2.07;;
4452;SDS011;2239;48.152;11.584;2023-07-16T14:15:53;2.93;;;2.03;;
4452;SDS011;2239;48.152;11.584;2023-07-16T14:18:19;2.57;;;1.70;;
4452;SDS011;2239;48.152;11.584;2023-07-16T14:20:44;1.90;;;1.60;;
4452;SDS011;2239;48.152;11.584;2023-07-16T14:23:10;2.07;;;1.87;;
4452;SDS011;2239;48.152;11.584;2023-07-16T14:25:36;1.70;;;1.60;;
4452;SDS011;2239;48.152;11.584;2023-07-16T14:28:01;2.50;;;1.90;;
4452;SDS011;2239;48.152;11.584;2023-07-16T14:30:27;3.90;;;2.10;;
4452;SDS011;2239;48.152;11.584;2023-07-16T14:32:53;2.57;;;1.70;;
4452;SDS011;2239;48.152;11.584;2023-07-16T14:35:18;2.90;;;1.97;;
4452;SDS011;2239;48.152;11.584;2023-07-16T14:37:44;1.70;;;1.60;;
4452;SDS011;2239;48.152;11.584;2023-07-16T14:40:09;3.33;;;1.90;;
4452;SDS011;2239;48.152;11.584;2023-07-16T14:42:36;2.20;;;1.63;;
4452;SDS011;2239;48.152;11.584;2023-07-16T14:45:01;2.00;;;1.60;;
4452;SDS011;2239;48.152;11.584;2023-07-16T14:47:29;2.10;;;1.70;;
4452;SDS011;2239;48.152;11.584;2023-07-16T14:49:55;4.83;;;2.03;;
4452;SDS011;2239;48.152;11.584;2023-07-16T14:52:20;3.33;;;1.93;;
4452;SDS011;2239;48.152;11.584;2023-07-16T14:54:46;2.70;;;1.80;;
4452;SDS011;2239;48.152;11.584;2023-07-16T14:57:11;2.27;;;1.63;;
4452;SDS011;2239;48.152;11.584;2023-07-16T14:59:37;3.23;;;1.90;;